createdAt,value
2019-02-16T00:01:07.007Z,21.97
2019-02-16T00:03:39.540Z,22.60
2019-02-16T00:06:08.445Z,22.87
2019-02-16T00:08:37.366Z,23.20
2019-02-16T00:11:08.823Z,22.73
2019-02-16T00:13:43.036Z,20.60
2019-02-16T00:16:15.717Z,21.57
2019-02-16T00:18:51.474Z,20.50
2019-02-16T00:21:23.668Z,20.17
2019-02-16T00:23:59.598Z,20.43
2019-02-16T00:26:30.740Z,20.23
2019-02-16T00:29:01.604Z,19.70
2019-02-16T00:31:34.567Z,18.00
2019-02-16T00:34:05.616Z,19.80
2019-02-16T00:36:38.336Z,20.97
2019-02-16T00:39:12.303Z,18.30
2019-02-16T00:41:46.568Z,20.73
2019-02-16T00:44:19.178Z,19.57
2019-02-16T00:46:51.267Z,21.73
2019-02-16T00:49:23.025Z,21.63
2019-02-16T00:51:55.399Z,20.87
2019-02-16T00:54:26.851Z,19.80
2019-02-16T00:56:57.997Z,18.57
2019-02-16T00:59:31.292Z,18.80
2019-02-16T01:02:03.503Z,20.17
2019-02-16T01:04:39.472Z,21.30
2019-02-16T01:07:10.257Z,21.37
2019-02-16T01:09:41.381Z,22.30
2019-02-16T01:12:14.389Z,24.10
2019-02-16T01:14:47.069Z,21.20
2019-02-16T01:17:20.234Z,24.07
2019-02-16T01:19:53.046Z,22.57
2019-02-16T01:22:25.415Z,21.67
2019-02-16T01:24:57.794Z,21.50
2019-02-16T01:27:32.929Z,23.90
2019-02-16T01:30:04.894Z,22.50
2019-02-16T01:32:35.991Z,20.03
2019-02-16T01:35:07.903Z,23.63
2019-02-16T01:37:40.686Z,22.33
2019-02-16T01:40:14.186Z,20.93
2019-02-16T01:42:46.557Z,20.33
2019-02-16T01:45:17.396Z,19.07
2019-02-16T01:47:49.666Z,21.10
2019-02-16T01:50:21.836Z,20.77
2019-02-16T01:52:54.619Z,22.73
2019-02-16T01:55:29.961Z,22.20
2019-02-16T01:58:04.487Z,21.73
2019-02-16T02:00:37.901Z,19.17
2019-02-16T02:03:11.368Z,19.60
2019-02-16T02:05:48.534Z,17.10
2019-02-16T02:08:21.534Z,20.53
2019-02-16T02:10:53.422Z,19.37
2019-02-16T02:13:27.974Z,21.43
2019-02-16T02:16:01.454Z,21.07
2019-02-16T02:18:33.759Z,20.63
2019-02-16T02:21:07.525Z,20.87
2019-02-16T02:23:38.976Z,21.33
2019-02-16T02:26:12.586Z,20.97
2019-02-16T02:28:47.719Z,21.10
2019-02-16T02:31:21.636Z,21.60
2019-02-16T02:33:54.707Z,21.37
2019-02-16T02:36:28.241Z,23.00
2019-02-16T02:38:59.667Z,19.47
2019-02-16T02:41:34.807Z,18.90
2019-02-16T02:44:08.715Z,16.33
2019-02-16T02:46:39.554Z,18.13
2019-02-16T02:49:13.773Z,18.07
2019-02-16T02:51:52.366Z,18.90
2019-02-16T02:54:21.170Z,17.20
2019-02-16T02:56:54.577Z,18.70
2019-02-16T02:59:27.261Z,18.90
2019-02-16T03:02:07.928Z,19.17
2019-02-16T03:04:43.210Z,18.60
2019-02-16T03:07:15.076Z,17.83
2019-02-16T03:09:48.736Z,18.90
2019-02-16T03:12:22.336Z,16.43
2019-02-16T03:14:56.632Z,19.03
2019-02-16T03:17:30.615Z,17.23
2019-02-16T03:20:06.324Z,18.30
2019-02-16T03:23:08.276Z,20.10
2019-02-16T03:25:48.237Z,17.40
2019-02-16T03:28:40.943Z,18.90
2019-02-16T03:31:35.077Z,15.20
2019-02-16T03:34:08.378Z,16.50
2019-02-16T03:36:54.257Z,13.57
2019-02-16T03:39:26.937Z,15.17
2019-02-16T03:42:00.548Z,15.63
2019-02-16T03:44:34.144Z,15.97
2019-02-16T03:47:08.974Z,17.37
2019-02-16T03:49:43.514Z,15.30
2019-02-16T03:52:18.947Z,15.87
2019-02-16T03:54:52.767Z,16.63
2019-02-16T03:57:25.966Z,15.10
2019-02-16T03:59:57.727Z,15.70
2019-02-16T04:02:30.097Z,15.13
2019-02-16T04:05:05.114Z,15.83
2019-02-16T04:07:41.790Z,17.20
2019-02-16T04:10:15.401Z,15.87
2019-02-16T04:12:54.218Z,15.40
2019-02-16T04:15:27.206Z,16.80
2019-02-16T04:18:01.111Z,17.17
2019-02-16T04:20:35.943Z,17.43
2019-02-16T04:23:09.955Z,16.70
2019-02-16T04:25:43.693Z,15.13
2019-02-16T04:28:15.625Z,15.97
2019-02-16T04:30:49.227Z,17.10
2019-02-16T04:33:21.908Z,16.03
2019-02-16T04:35:54.179Z,16.13
2019-02-16T04:38:22.962Z,16.27
2019-02-16T04:40:51.651Z,17.03
2019-02-16T04:43:24.644Z,15.23
2019-02-16T04:45:57.949Z,16.03
2019-02-16T04:48:33.088Z,13.87
2019-02-16T04:51:05.144Z,13.67
2019-02-16T04:53:37.826Z,13.50
2019-02-16T04:56:10.771Z,13.00
2019-02-16T04:58:43.802Z,13.23
2019-02-16T05:01:17.097Z,13.80
2019-02-16T05:03:51.924Z,12.57
2019-02-16T05:06:25.171Z,13.63
2019-02-16T05:08:59.132Z,14.13
2019-02-16T05:11:37.038Z,16.70
2019-02-16T05:14:11.444Z,14.27
2019-02-16T05:16:43.627Z,14.00
2019-02-16T05:19:14.830Z,15.47
2019-02-16T05:21:47.982Z,24.13
2019-02-16T05:24:20.339Z,20.00
2019-02-16T05:26:52.519Z,19.07
2019-02-16T05:29:26.313Z,15.33
2019-02-16T05:31:57.460Z,18.30
2019-02-16T05:34:32.249Z,14.40
2019-02-16T05:37:05.279Z,14.80
2019-02-16T05:39:38.880Z,15.03
2019-02-16T05:42:10.027Z,16.50
2019-02-16T05:44:43.762Z,15.93
2019-02-16T05:47:18.396Z,15.87
2019-02-16T05:49:50.232Z,17.10
2019-02-16T05:52:26.587Z,17.83
2019-02-16T05:54:58.727Z,17.27
2019-02-16T05:57:28.601Z,17.53
2019-02-16T06:00:03.092Z,17.20
2019-02-16T06:02:38.844Z,17.20
2019-02-16T06:05:13.301Z,20.80
2019-02-16T06:07:44.850Z,18.50
2019-02-16T06:10:16.662Z,17.53
2019-02-16T06:12:49.260Z,17.93
2019-02-16T06:15:22.557Z,17.33
2019-02-16T06:17:54.784Z,16.00
2019-02-16T06:20:24.847Z,14.83
2019-02-16T06:23:03.801Z,16.07
2019-02-16T06:25:34.562Z,18.27
2019-02-16T06:28:08.726Z,15.33
2019-02-16T06:30:43.648Z,14.23
2019-02-16T06:33:14.515Z,15.03
2019-02-16T06:35:50.768Z,15.03
2019-02-16T06:38:23.135Z,15.20
2019-02-16T06:40:58.890Z,14.20
2019-02-16T06:43:30.426Z,15.33
2019-02-16T06:46:07.119Z,14.17
2019-02-16T06:48:39.695Z,14.30
2019-02-16T06:51:15.143Z,13.97
2019-02-16T06:54:07.483Z,13.40
2019-02-16T06:56:44.772Z,12.07
2019-02-16T06:59:19.605Z,13.27
2019-02-16T07:02:21.558Z,14.13
2019-02-16T07:04:55.691Z,14.20
2019-02-16T07:07:29.788Z,15.53
2019-02-16T07:10:06.437Z,14.63
2019-02-16T07:12:39.565Z,14.90
2019-02-16T07:15:19.010Z,14.17
2019-02-16T07:18:02.744Z,11.60
2019-02-16T07:20:37.269Z,13.60
2019-02-16T07:23:11.998Z,11.20
2019-02-16T07:25:46.522Z,10.73
2019-02-16T07:28:24.117Z,10.37
2019-02-16T07:30:57.729Z,12.47
2019-02-16T07:33:33.066Z,11.73
2019-02-16T07:36:04.925Z,13.97
2019-02-16T07:38:41.609Z,14.60
2019-02-16T07:41:16.143Z,14.97
2019-02-16T07:44:05.087Z,16.73
2019-02-16T07:46:49.254Z,15.67
2019-02-16T07:49:36.313Z,17.90
2019-02-16T07:52:20.968Z,15.67
2019-02-16T07:54:55.205Z,17.10
2019-02-16T07:57:36.852Z,18.77
2019-02-16T08:00:25.991Z,17.40
2019-02-16T08:03:10.655Z,18.37
2019-02-16T08:05:56.859Z,16.13
2019-02-16T08:11:35.212Z,19.97
2019-02-16T08:14:13.291Z,21.03
2019-02-16T08:16:48.468Z,18.93
2019-02-16T08:19:36.531Z,17.43
2019-02-16T08:22:18.370Z,15.90
2019-02-16T08:24:54.125Z,17.37
2019-02-16T08:27:41.091Z,19.03
2019-02-16T08:30:35.035Z,16.83
2019-02-16T08:36:05.128Z,16.30
2019-02-16T08:38:52.811Z,15.73
2019-02-16T08:41:35.469Z,14.17
2019-02-16T08:44:31.639Z,13.10
2019-02-16T08:47:24.292Z,13.83
2019-02-16T08:50:08.029Z,15.43
2019-02-16T08:52:48.163Z,14.07
2019-02-16T08:55:41.345Z,15.07
2019-02-16T08:58:23.243Z,17.73
2019-02-16T09:01:08.826Z,22.50
2019-02-16T09:03:46.188Z,13.23
2019-02-16T09:06:28.933Z,12.73
2019-02-16T09:09:23.155Z,14.07
2019-02-16T09:12:00.783Z,15.33
2019-02-16T09:14:52.484Z,15.97
2019-02-16T09:17:27.109Z,16.37
2019-02-16T09:20:19.335Z,17.07
2019-02-16T09:22:59.991Z,13.77
2019-02-16T09:25:54.176Z,13.53
2019-02-16T09:28:31.171Z,13.73
2019-02-16T09:31:08.470Z,15.47
2019-02-16T09:33:50.327Z,14.10
2019-02-16T09:36:33.455Z,14.10
2019-02-16T09:39:11.415Z,15.23
2019-02-16T09:41:51.555Z,17.43
2019-02-16T09:44:39.452Z,22.23
2019-02-16T09:47:40.411Z,14.07
2019-02-16T09:50:41.647Z,13.80
2019-02-16T09:53:28.164Z,12.73
2019-02-16T09:56:24.190Z,14.50
2019-02-16T09:59:09.274Z,15.73
2019-02-16T10:01:56.942Z,16.97
2019-02-16T10:04:37.977Z,15.50
2019-02-16T10:07:23.254Z,15.03
2019-02-16T10:10:05.340Z,13.63
2019-02-16T10:12:48.557Z,14.60
2019-02-16T10:15:45.262Z,15.07
2019-02-16T10:18:28.297Z,14.63
2019-02-16T10:21:06.754Z,17.80
2019-02-16T10:23:50.207Z,16.63
2019-02-16T10:26:32.298Z,16.80
2019-02-16T10:29:17.523Z,14.20
2019-02-16T10:32:08.212Z,14.63
2019-02-16T10:34:42.832Z,14.17
2019-02-16T10:37:34.723Z,11.83
2019-02-16T10:40:16.620Z,14.57
2019-02-16T10:42:56.810Z,16.30
2019-02-16T10:45:45.943Z,15.77
2019-02-16T10:48:24.376Z,15.50
2019-02-16T10:51:08.508Z,15.90
2019-02-16T10:53:46.798Z,17.10
2019-02-16T10:56:21.550Z,18.07
2019-02-16T10:58:57.041Z,16.43
2019-02-16T11:01:43.809Z,18.93
2019-02-16T11:04:25.383Z,17.33
2019-02-16T11:07:17.270Z,16.83
2019-02-16T11:09:53.800Z,19.27
2019-02-16T11:12:50.431Z,16.30
2019-02-16T11:15:39.407Z,19.47
2019-02-16T11:18:35.442Z,20.67
2019-02-16T11:21:18.565Z,18.10
2019-02-16T11:24:07.216Z,19.87
2019-02-16T11:26:58.943Z,20.53
2019-02-16T11:29:57.430Z,22.17
2019-02-16T11:32:37.487Z,22.37
2019-02-16T11:35:26.139Z,20.27
2019-02-16T11:38:01.586Z,20.07
2019-02-16T11:40:56.850Z,19.33
2019-02-16T11:43:41.979Z,19.43
2019-02-16T11:46:26.633Z,22.60
2019-02-16T11:49:09.799Z,21.10
2019-02-16T11:51:45.213Z,21.80
2019-02-16T11:54:30.142Z,22.00
2019-02-16T11:57:21.806Z,21.37
2019-02-16T12:00:01.349Z,20.70
2019-02-16T12:02:47.081Z,21.40
2019-02-16T12:05:35.268Z,22.73
2019-02-16T12:08:15.414Z,22.37
2019-02-16T12:11:01.074Z,20.73
2019-02-16T12:13:38.192Z,22.03
2019-02-16T12:16:11.396Z,22.63
2019-02-16T12:19:01.680Z,24.03
2019-02-16T12:21:46.693Z,27.07
2019-02-16T12:24:30.329Z,24.30
2019-02-16T12:27:05.327Z,24.50
2019-02-16T12:29:45.074Z,22.73
2019-02-16T12:32:35.570Z,25.27
2019-02-16T12:35:22.385Z,27.40
2019-02-16T12:38:03.047Z,28.13
2019-02-16T12:40:41.242Z,28.20
2019-02-16T12:43:37.289Z,28.83
2019-02-16T12:46:14.885Z,25.63
2019-02-16T12:48:52.205Z,24.33
2019-02-16T12:51:33.148Z,27.10
2019-02-16T12:54:24.925Z,23.17
2019-02-16T12:57:09.848Z,26.67
2019-02-16T12:59:51.128Z,26.53
2019-02-16T13:02:29.481Z,25.37
2019-02-16T13:05:09.126Z,24.83
2019-02-16T13:07:53.787Z,24.53
2019-02-16T13:10:42.111Z,24.83
2019-02-16T13:13:31.146Z,25.40
2019-02-16T13:16:08.346Z,24.13
2019-02-16T13:18:44.779Z,22.77
2019-02-16T13:21:22.028Z,22.57
2019-02-16T13:24:06.069Z,25.63
2019-02-16T13:26:45.797Z,23.93
2019-02-16T13:29:32.995Z,22.80
2019-02-16T13:32:23.066Z,23.70
2019-02-16T13:35:13.608Z,23.47
2019-02-16T13:38:03.489Z,22.50
2019-02-16T13:40:47.134Z,20.30
2019-02-16T13:43:28.357Z,19.93
2019-02-16T13:46:14.403Z,19.97
2019-02-16T13:48:58.144Z,19.83
2019-02-16T13:51:37.317Z,21.03
2019-02-16T13:54:31.013Z,20.80
2019-02-16T13:57:22.705Z,20.40
2019-02-16T14:00:02.629Z,19.57
2019-02-16T14:02:43.375Z,19.17
2019-02-16T14:05:20.621Z,18.47
2019-02-16T14:08:05.981Z,19.77
2019-02-16T14:10:48.321Z,20.83
2019-02-16T14:13:28.578Z,21.13
2019-02-16T14:16:08.216Z,21.03
2019-02-16T14:18:45.873Z,18.77
2019-02-16T14:21:19.680Z,19.20
2019-02-16T14:23:53.096Z,21.50
2019-02-16T14:26:27.780Z,19.90
2019-02-16T14:29:01.716Z,20.57
2019-02-16T14:31:36.239Z,19.43
2019-02-16T14:34:15.074Z,20.80
2019-02-16T14:36:53.890Z,23.20
2019-02-16T14:42:05.702Z,21.90
2019-02-16T14:44:42.380Z,22.73
2019-02-16T14:47:17.209Z,20.87
2019-02-16T14:49:55.725Z,23.70
2019-02-16T14:52:29.328Z,23.80
2019-02-16T14:55:02.931Z,23.83
2019-02-16T14:57:40.834Z,22.50
2019-02-16T15:00:16.280Z,24.63
2019-02-16T15:02:50.807Z,22.97
2019-02-16T15:05:29.630Z,23.87
2019-02-16T15:08:03.747Z,21.63
2019-02-16T15:10:39.386Z,22.67
2019-02-16T15:13:15.667Z,22.40
2019-02-16T15:15:53.254Z,24.33
2019-02-16T15:18:26.549Z,25.27
2019-02-16T15:21:04.186Z,23.60
2019-02-16T15:23:38.508Z,23.53
2019-02-16T15:26:12.797Z,23.97
2019-02-16T15:28:46.817Z,24.37
2019-02-16T15:31:20.429Z,23.00
2019-02-16T15:33:54.513Z,23.23
2019-02-16T15:36:28.117Z,24.83
2019-02-16T15:39:07.299Z,24.40
2019-02-16T15:41:40.235Z,26.23
2019-02-16T15:44:14.760Z,33.13
2019-02-16T15:46:48.362Z,32.40
2019-02-16T15:49:28.733Z,28.73
2019-02-16T15:52:11.246Z,27.17
2019-02-16T15:54:44.080Z,34.03
2019-02-16T15:57:18.450Z,36.10
2019-02-16T15:59:53.931Z,47.10
2019-02-16T16:05:29.674Z,39.63
2019-02-16T16:08:44.125Z,34.53
2019-02-16T16:11:31.129Z,41.50
2019-02-16T16:14:12.227Z,39.57
2019-02-16T16:16:54.431Z,41.97
2019-02-16T16:19:32.064Z,51.43
2019-02-16T16:22:17.726Z,57.73
2019-02-16T16:25:02.777Z,37.30
2019-02-16T16:27:45.051Z,34.63
2019-02-16T16:30:22.267Z,38.23
2019-02-16T16:34:55.381Z,35.47
2019-02-16T16:37:37.453Z,31.90
2019-02-16T16:40:14.564Z,34.97
2019-02-16T16:42:55.731Z,36.23
2019-02-16T16:45:58.330Z,37.33
2019-02-16T16:48:34.103Z,42.00
2019-02-16T16:51:18.755Z,41.43
2019-02-16T16:54:20.485Z,42.07
2019-02-16T17:00:03.441Z,36.13
2019-02-16T17:02:42.917Z,37.37
2019-02-16T17:05:52.694Z,32.37
2019-02-16T17:08:44.480Z,30.90
2019-02-16T17:11:31.272Z,31.77
2019-02-16T17:14:14.103Z,27.73
2019-02-16T17:16:54.453Z,29.73
2019-02-16T17:19:32.612Z,29.60
2019-02-16T17:22:38.830Z,30.53
2019-02-16T17:25:29.031Z,30.70
2019-02-16T17:28:22.771Z,28.67
2019-02-16T17:31:17.435Z,28.30
2019-02-16T17:34:07.121Z,29.37
2019-02-16T17:36:44.774Z,27.93
2019-02-16T17:39:24.925Z,29.73
2019-02-16T17:42:09.127Z,27.20
2019-02-16T17:44:56.790Z,27.97
2019-02-16T17:47:49.971Z,28.63
2019-02-16T17:53:18.839Z,29.00
2019-02-16T17:56:13.527Z,29.23
2019-02-16T17:58:51.692Z,29.07
2019-02-16T18:01:42.834Z,28.80
2019-02-16T18:04:35.524Z,28.50
2019-02-16T18:07:20.728Z,27.07
2019-02-16T18:10:02.838Z,28.00
2019-02-16T18:12:39.607Z,28.13
2019-02-16T18:15:23.257Z,27.93
2019-02-16T18:18:13.817Z,28.77
2019-02-16T18:20:59.736Z,27.20
2019-02-16T18:23:55.200Z,27.90
2019-02-16T18:26:41.412Z,27.67
2019-02-16T18:29:20.481Z,28.20
2019-02-16T18:31:59.141Z,27.03
2019-02-16T18:34:36.148Z,24.67
2019-02-16T18:37:13.882Z,25.67
2019-02-16T18:39:54.246Z,24.30
2019-02-16T18:42:36.140Z,26.67
2019-02-16T18:45:18.356Z,26.90
2019-02-16T18:48:06.703Z,27.70
2019-02-16T18:50:56.725Z,24.03
2019-02-16T18:53:52.916Z,24.50
2019-02-16T18:56:39.498Z,24.67
2019-02-16T18:59:16.126Z,24.27
2019-02-16T19:01:54.933Z,23.27
2019-02-16T19:04:50.072Z,24.17
2019-02-16T19:07:28.713Z,24.27
2019-02-16T19:10:15.663Z,22.97
2019-02-16T19:12:57.529Z,22.13
2019-02-16T19:15:34.238Z,24.23
2019-02-16T19:18:17.998Z,22.83
2019-02-16T19:20:50.348Z,22.23
2019-02-16T19:23:28.572Z,22.67
2019-02-16T19:26:26.338Z,21.53
2019-02-16T19:29:20.933Z,19.87
2019-02-16T19:31:59.451Z,21.53
2019-02-16T19:34:40.725Z,20.20
2019-02-16T19:37:22.934Z,19.70
2019-02-16T19:40:20.492Z,20.80
2019-02-16T19:43:12.721Z,21.30
2019-02-16T19:46:04.254Z,19.53
2019-02-16T19:48:44.621Z,20.40
2019-02-16T19:51:40.347Z,19.30
2019-02-16T19:54:21.394Z,19.13
2019-02-16T19:57:05.370Z,19.03
2019-02-16T19:59:59.390Z,18.07
2019-02-16T20:02:50.077Z,20.37
2019-02-16T20:05:47.017Z,19.10
2019-02-16T20:08:35.970Z,19.57
2019-02-16T20:11:27.684Z,19.80
2019-02-16T20:14:10.500Z,17.97
2019-02-16T20:16:53.934Z,18.67
2019-02-16T20:19:31.479Z,17.43
2019-02-16T20:22:12.672Z,19.67
2019-02-16T20:25:03.281Z,19.77
2019-02-16T20:27:45.856Z,18.87
2019-02-16T20:30:22.478Z,20.13
2019-02-16T20:33:01.981Z,21.10
2019-02-16T20:35:37.090Z,20.70
2019-02-16T20:38:31.170Z,19.83
2019-02-16T20:41:24.117Z,19.33
2019-02-16T20:44:00.296Z,19.30
2019-02-16T20:46:40.986Z,18.30
2019-02-16T20:49:40.498Z,18.97
2019-02-16T20:52:24.926Z,18.80
2019-02-16T21:00:55.147Z,20.23
2019-02-16T21:03:41.753Z,20.13
2019-02-16T21:06:17.653Z,20.03
2019-02-16T21:08:56.866Z,20.83
2019-02-16T21:11:39.175Z,19.00
2019-02-16T21:14:09.286Z,20.97
2019-02-16T21:16:39.444Z,21.17
2019-02-16T21:19:18.596Z,21.10
2019-02-16T21:21:55.498Z,19.87
2019-02-16T21:24:28.162Z,21.03
2019-02-16T21:26:58.278Z,19.93
2019-02-16T21:29:44.767Z,21.47
2019-02-16T21:32:29.990Z,23.90
2019-02-16T21:35:05.689Z,21.17
2019-02-16T21:37:38.600Z,21.57
2019-02-16T21:40:40.109Z,20.50
2019-02-16T21:43:16.010Z,21.60
2019-02-16T21:45:52.244Z,20.80
2019-02-16T21:48:22.567Z,21.33
2019-02-16T21:50:58.472Z,20.23
2019-02-16T21:53:34.124Z,20.57
2019-02-16T21:56:13.200Z,18.93
2019-02-16T21:58:49.236Z,20.80
2019-02-16T22:01:31.214Z,22.53
2019-02-16T22:04:01.388Z,21.43
2019-02-16T22:06:31.492Z,21.80
2019-02-16T22:09:10.643Z,25.87
2019-02-16T22:11:46.627Z,21.27
2019-02-16T22:14:15.355Z,20.77
2019-02-16T22:16:43.826Z,19.20
2019-02-16T22:19:12.354Z,23.87
2019-02-16T22:21:53.182Z,23.47
2019-02-16T22:24:21.640Z,21.40
2019-02-16T22:26:50.181Z,21.63
2019-02-16T22:29:18.893Z,23.30
2019-02-16T22:31:47.353Z,21.37
2019-02-16T22:34:15.910Z,23.73
2019-02-16T22:36:44.383Z,22.63
2019-02-16T22:39:13.111Z,22.07
2019-02-16T22:41:41.681Z,21.90
2019-02-16T22:44:10.170Z,23.17
2019-02-16T22:46:38.715Z,22.33
2019-02-16T22:49:07.183Z,22.67
2019-02-16T22:51:35.717Z,22.07
2019-02-16T22:54:06.362Z,21.47
2019-02-16T22:56:34.536Z,20.30
2019-02-16T22:59:03.075Z,23.80
2019-02-16T23:01:31.963Z,22.00
2019-02-16T23:04:00.451Z,21.33
2019-02-16T23:06:28.906Z,21.10
2019-02-16T23:08:57.354Z,23.27
2019-02-16T23:11:25.823Z,19.87
2019-02-16T23:13:54.283Z,19.63
2019-02-16T23:16:22.863Z,19.73
2019-02-16T23:18:51.323Z,18.97
2019-02-16T23:21:19.777Z,18.80
2019-02-16T23:23:48.243Z,20.47
2019-02-16T23:26:16.765Z,18.87
2019-02-16T23:28:45.230Z,20.93
2019-02-16T23:31:13.758Z,19.53
2019-02-16T23:33:42.256Z,19.80
2019-02-16T23:36:10.797Z,22.17
2019-02-16T23:38:39.327Z,19.90
2019-02-16T23:41:07.781Z,20.80
2019-02-16T23:43:36.242Z,20.73
2019-02-16T23:46:04.765Z,20.13
2019-02-16T23:48:33.590Z,19.90
2019-02-16T23:51:02.050Z,18.33
2019-02-16T23:53:30.526Z,19.90
2019-02-16T23:55:59.053Z,20.73
2019-02-16T23:58:27.513Z,19.33
